McCarley, Mississippi
Current Conditions -  °F | °C
As of 9:53 AM on Friday 21 Nov 2014 (Local Time) from KGWO Reporting Station
Broken Clouds Broken Clouds  
Wind Chill: 61°   Ceiling: 9000
Heat Index: 61°   Visibility: 10mi
Dew Point: 46°   Wind: 6mph
Humidity: 58%   Direction: 140°SE
Pressure: 30.33"   Gusts: NA
Location:  33.52°N, 89.83°W
Report Text: KGWO 211553Z AUTO 14005KT 10SM BKN090 16/08 A3033 RMK AO2 SLP269 T01610078 TSNO
Loading
Personal Weather Stations






























Interactive Weather Map New forecast layout! Learn more

10-Day Weather Forecast

Advertisements
Track Severe Weather on mobile